createdAt,value
2019-03-18T00:00:11.949Z,5.80
2019-03-18T00:02:40.411Z,5.80
2019-03-18T00:05:09.005Z,5.80
2019-03-18T00:07:37.441Z,5.70
2019-03-18T00:10:07.712Z,5.80
2019-03-18T00:12:36.144Z,5.80
2019-03-18T00:15:06.814Z,5.80
2019-03-18T00:17:35.256Z,5.80
2019-03-18T00:20:04.817Z,5.80
2019-03-18T00:22:33.459Z,5.80
2019-03-18T00:25:01.879Z,5.80
2019-03-18T00:27:30.323Z,5.70
2019-03-18T00:29:58.761Z,5.80
2019-03-18T00:32:27.202Z,5.70
2019-03-18T00:34:55.620Z,5.70
2019-03-18T00:37:24.052Z,5.80
2019-03-18T00:39:52.477Z,5.70
2019-03-18T00:42:20.917Z,5.70
2019-03-18T00:44:49.337Z,5.70
2019-03-18T00:47:17.773Z,5.70
2019-03-18T00:49:46.215Z,5.70
2019-03-18T00:52:14.650Z,5.70
2019-03-18T00:55:02.420Z,5.70
2019-03-18T00:57:30.856Z,5.70
2019-03-18T00:59:59.281Z,5.70
2019-03-18T01:02:27.728Z,5.70
2019-03-18T01:04:56.164Z,5.70
2019-03-18T01:07:24.605Z,5.70
2019-03-18T01:09:53.041Z,5.70
2019-03-18T01:12:21.468Z,5.70
2019-03-18T01:14:49.904Z,5.70
2019-03-18T01:17:18.332Z,5.70
2019-03-18T01:19:46.771Z,5.70
2019-03-18T01:22:15.192Z,5.70
2019-03-18T01:24:43.628Z,5.80
2019-03-18T01:27:12.072Z,5.80
2019-03-18T01:29:40.523Z,5.90
2019-03-18T01:32:08.940Z,5.90
2019-03-18T01:34:37.379Z,5.90
2019-03-18T01:37:05.822Z,5.90
2019-03-18T01:39:34.261Z,5.90
2019-03-18T01:42:03.599Z,5.90
2019-03-18T01:44:32.036Z,5.90
2019-03-18T01:47:00.488Z,5.90
2019-03-18T01:49:28.918Z,5.90
2019-03-18T01:51:57.349Z,5.90
2019-03-18T01:54:25.785Z,5.90
2019-03-18T01:56:54.220Z,5.90
2019-03-18T01:59:22.675Z,5.80
2019-03-18T02:01:51.105Z,5.80
2019-03-18T02:04:19.537Z,5.80
2019-03-18T02:06:47.968Z,5.80
2019-03-18T02:09:16.401Z,5.80
2019-03-18T02:11:44.826Z,5.80
2019-03-18T02:14:13.334Z,5.80
2019-03-18T02:16:41.771Z,5.70
2019-03-18T02:19:10.228Z,5.70
2019-03-18T02:21:38.715Z,5.70
2019-03-18T02:24:07.165Z,5.70
2019-03-18T02:26:35.584Z,5.70
2019-03-18T02:29:04.039Z,5.70
2019-03-18T02:31:32.460Z,5.70
2019-03-18T02:34:00.899Z,5.70
2019-03-18T02:36:29.318Z,5.70
2019-03-18T02:38:57.757Z,5.80
2019-03-18T02:41:26.195Z,5.70
2019-03-18T02:43:54.627Z,5.70
2019-03-18T02:46:23.127Z,5.70
2019-03-18T02:48:51.573Z,5.70
2019-03-18T02:51:20.006Z,5.70
2019-03-18T02:53:48.463Z,5.70
2019-03-18T02:56:16.966Z,5.70
2019-03-18T02:58:45.404Z,5.70
2019-03-18T03:01:13.863Z,5.70
2019-03-18T03:03:42.371Z,5.70
2019-03-18T03:06:10.890Z,5.60
2019-03-18T03:08:39.307Z,5.60
2019-03-18T03:11:07.749Z,5.60
2019-03-18T03:13:36.178Z,5.60
2019-03-18T03:16:04.617Z,5.50
2019-03-18T03:18:33.825Z,5.50
2019-03-18T03:21:02.265Z,5.40
2019-03-18T03:23:30.797Z,5.40
2019-03-18T03:25:59.301Z,5.30
2019-03-18T03:28:27.725Z,5.30
2019-03-18T03:30:56.168Z,5.30
2019-03-18T03:33:24.635Z,5.30
2019-03-18T03:35:53.220Z,5.20
2019-03-18T03:38:21.670Z,5.20
2019-03-18T03:40:50.160Z,5.20
2019-03-18T03:43:18.590Z,5.20
2019-03-18T03:45:47.034Z,5.20
2019-03-18T03:48:34.799Z,5.10
2019-03-18T03:51:03.933Z,5.10
2019-03-18T03:53:32.381Z,5.00
2019-03-18T03:56:00.818Z,5.00
2019-03-18T03:58:29.237Z,5.00
2019-03-18T04:00:57.673Z,5.00
2019-03-18T04:03:37.646Z,5.00
2019-03-18T04:05:56.274Z,5.00
2019-03-18T04:08:24.697Z,4.90
2019-03-18T04:10:53.215Z,4.90
2019-03-18T04:13:21.634Z,4.80
2019-03-18T04:15:50.091Z,4.90
2019-03-18T04:18:18.513Z,4.90
2019-03-18T04:20:46.947Z,4.90
2019-03-18T04:23:15.466Z,4.90
2019-03-18T04:25:43.917Z,4.90
2019-03-18T04:28:12.354Z,4.80
2019-03-18T04:30:40.876Z,4.80
2019-03-18T04:33:09.296Z,4.80
2019-03-18T04:35:37.751Z,4.70
2019-03-18T04:38:06.177Z,4.70
2019-03-18T04:40:34.612Z,4.70
2019-03-18T04:43:03.967Z,4.70
2019-03-18T04:45:32.402Z,4.60
2019-03-18T04:48:00.844Z,4.60
2019-03-18T04:50:29.268Z,4.50
2019-03-18T04:52:57.685Z,4.50
2019-03-18T04:55:26.139Z,4.50
2019-03-18T04:57:54.568Z,4.50
2019-03-18T05:00:23.017Z,4.40
2019-03-18T05:02:51.428Z,4.40
2019-03-18T05:05:19.897Z,4.40
2019-03-18T05:07:48.321Z,4.40
2019-03-18T05:10:16.767Z,4.40
2019-03-18T05:12:45.192Z,4.40
2019-03-18T05:15:13.681Z,4.40
2019-03-18T05:17:42.115Z,4.40
2019-03-18T05:20:11.386Z,4.30
2019-03-18T05:22:39.822Z,4.30
2019-03-18T05:25:09.372Z,4.40
2019-03-18T05:27:37.800Z,4.30
2019-03-18T05:30:11.630Z,4.30
2019-03-18T05:32:40.059Z,4.40
2019-03-18T05:35:08.549Z,4.40
2019-03-18T05:37:36.984Z,4.40
2019-03-18T05:40:07.265Z,4.30
2019-03-18T05:42:35.697Z,4.30
2019-03-18T05:45:06.356Z,4.30
2019-03-18T05:47:39.629Z,4.30
2019-03-18T05:50:06.829Z,4.30
2019-03-18T05:52:35.271Z,4.30
2019-03-18T05:55:04.869Z,4.40
2019-03-18T05:57:37.243Z,4.40
2019-03-18T06:00:13.781Z,4.50
2019-03-18T06:02:42.468Z,4.60
2019-03-18T06:05:10.897Z,4.60
2019-03-18T06:07:39.399Z,4.60
2019-03-18T06:10:10.620Z,4.60
2019-03-18T06:12:39.056Z,4.60
2019-03-18T06:15:09.625Z,4.60
2019-03-18T06:17:38.144Z,4.60
2019-03-18T06:20:09.265Z,4.60
2019-03-18T06:22:37.697Z,4.70
2019-03-18T06:25:08.145Z,4.80
2019-03-18T06:27:36.612Z,4.80
2019-03-18T06:30:18.072Z,4.90
2019-03-18T06:32:46.501Z,4.90
2019-03-18T06:35:14.981Z,4.90
2019-03-18T06:37:43.448Z,4.90
2019-03-18T06:40:15.249Z,5.00
2019-03-18T06:42:43.684Z,5.20
2019-03-18T06:45:12.460Z,5.50
2019-03-18T06:47:40.891Z,5.90
2019-03-18T06:50:12.997Z,5.90
2019-03-18T06:52:41.450Z,5.80
2019-03-18T06:55:10.038Z,5.60
2019-03-18T06:57:38.557Z,5.60
2019-03-18T07:00:14.349Z,5.50
2019-03-18T07:02:42.780Z,5.40
2019-03-18T07:05:11.372Z,5.60
2019-03-18T07:07:39.823Z,5.70
2019-03-18T07:10:10.508Z,5.70
2019-03-18T07:12:38.964Z,5.50
2019-03-18T07:15:07.920Z,5.50
2019-03-18T07:17:36.352Z,5.50
2019-03-18T07:20:10.109Z,5.60
2019-03-18T07:22:38.536Z,5.70
2019-03-18T07:25:07.519Z,5.60
2019-03-18T07:27:35.971Z,5.40
2019-03-18T07:30:13.163Z,5.80
2019-03-18T07:32:41.599Z,6.20
2019-03-18T07:35:10.103Z,6.80
2019-03-18T07:37:38.559Z,7.00
2019-03-18T07:40:14.594Z,7.20
2019-03-18T07:42:43.031Z,7.70
2019-03-18T07:45:15.436Z,8.10
2019-03-18T07:47:42.463Z,8.00
2019-03-18T07:50:12.413Z,8.30
2019-03-18T07:52:40.844Z,7.90
2019-03-18T07:55:09.521Z,7.90
2019-03-18T07:57:37.975Z,7.70
2019-03-18T08:00:15.848Z,8.00
2019-03-18T08:02:44.284Z,8.30
2019-03-18T08:05:12.704Z,8.30
2019-03-18T08:07:41.143Z,8.10
2019-03-18T08:10:11.706Z,8.40
2019-03-18T08:12:40.140Z,8.30
2019-03-18T08:15:10.003Z,8.10
2019-03-18T08:17:38.437Z,7.60
2019-03-18T08:20:09.311Z,7.90
2019-03-18T08:22:37.762Z,7.80
2019-03-18T08:25:07.539Z,8.30
2019-03-18T08:27:36.032Z,8.20
2019-03-18T08:30:07.556Z,8.00
2019-03-18T08:32:35.994Z,8.20
2019-03-18T08:35:05.748Z,8.50
2019-03-18T08:37:37.205Z,8.90
2019-03-18T08:40:10.534Z,8.50
2019-03-18T08:42:38.971Z,8.50
2019-03-18T08:45:10.484Z,8.00
2019-03-18T08:47:38.911Z,7.80
2019-03-18T08:50:12.472Z,7.50
2019-03-18T08:52:41.287Z,7.30
2019-03-18T08:55:10.681Z,7.00
2019-03-18T08:57:39.149Z,6.90
2019-03-18T09:00:13.256Z,6.90
2019-03-18T09:02:41.764Z,6.90
2019-03-18T09:05:10.356Z,6.90
2019-03-18T09:07:38.798Z,6.80
2019-03-18T09:10:13.692Z,6.90
2019-03-18T09:12:42.128Z,7.10
2019-03-18T09:15:11.450Z,7.20
2019-03-18T09:17:39.949Z,7.10
2019-03-18T09:20:10.870Z,7.30
2019-03-18T09:22:39.318Z,7.40
2019-03-18T09:25:09.694Z,7.70
2019-03-18T09:27:38.243Z,7.60
2019-03-18T09:30:12.414Z,7.60
2019-03-18T09:32:40.832Z,7.50
2019-03-18T09:35:09.333Z,7.60
2019-03-18T09:37:37.821Z,7.80
2019-03-18T09:40:09.261Z,7.60
2019-03-18T09:42:37.703Z,7.90
2019-03-18T09:45:19.653Z,7.80
2019-03-18T09:47:48.082Z,8.00
2019-03-18T09:50:16.777Z,8.10
2019-03-18T09:52:45.280Z,7.90
2019-03-18T09:55:13.858Z,7.50
2019-03-18T09:57:42.278Z,7.30
2019-03-18T10:00:15.593Z,7.20
2019-03-18T10:02:44.010Z,7.10
2019-03-18T10:05:12.447Z,7.10
2019-03-18T10:07:40.884Z,7.10
2019-03-18T10:10:10.960Z,7.00
2019-03-18T10:12:39.398Z,7.00
2019-03-18T10:15:10.962Z,7.10
2019-03-18T10:17:39.376Z,7.20
2019-03-18T10:20:08.977Z,7.20
2019-03-18T10:22:37.461Z,7.10
2019-03-18T10:25:07.467Z,7.10
2019-03-18T10:27:37.684Z,7.30
2019-03-18T10:30:11.870Z,7.60
2019-03-18T10:32:40.296Z,7.60
2019-03-18T10:35:09.279Z,7.30
2019-03-18T10:37:37.764Z,7.20
2019-03-18T10:40:09.059Z,7.30
2019-03-18T10:42:37.537Z,7.50
2019-03-18T10:45:10.408Z,7.40
2019-03-18T10:47:38.834Z,7.50
2019-03-18T10:50:16.921Z,7.30
2019-03-18T10:52:45.468Z,7.40
2019-03-18T10:55:13.883Z,7.50
2019-03-18T10:57:42.334Z,8.30
2019-03-18T11:00:15.494Z,9.60
2019-03-18T11:02:45.194Z,9.80
2019-03-18T11:05:14.673Z,9.30
2019-03-18T11:07:43.158Z,9.30
2019-03-18T11:10:13.027Z,9.10
2019-03-18T11:12:41.471Z,9.00
2019-03-18T11:15:15.073Z,8.70
2019-03-18T11:17:44.344Z,8.70
2019-03-18T11:20:16.466Z,8.50
2019-03-18T11:22:44.924Z,8.30
2019-03-18T11:25:14.796Z,8.00
2019-03-18T11:27:43.303Z,8.00
2019-03-18T11:30:16.328Z,7.80
2019-03-18T11:32:44.762Z,7.60
2019-03-18T11:35:13.202Z,7.70
2019-03-18T11:37:41.728Z,7.70
2019-03-18T11:40:12.986Z,7.80
2019-03-18T11:42:41.455Z,7.80
2019-03-18T11:45:14.404Z,8.10
2019-03-18T11:47:42.836Z,8.10
2019-03-18T11:50:16.257Z,8.20
2019-03-18T11:52:44.776Z,8.30
2019-03-18T11:55:24.246Z,8.40
2019-03-18T11:57:52.679Z,8.10
2019-03-18T12:00:25.176Z,8.00
2019-03-18T12:02:53.695Z,8.00
2019-03-18T12:05:22.973Z,7.90
2019-03-18T12:07:51.485Z,7.90
2019-03-18T12:10:20.922Z,8.20
2019-03-18T12:12:49.377Z,8.20
2019-03-18T12:15:21.412Z,8.50
2019-03-18T12:17:49.173Z,8.80
2019-03-18T12:20:24.094Z,9.30
2019-03-18T12:22:47.809Z,8.80
2019-03-18T12:25:16.302Z,8.80
2019-03-18T12:27:44.746Z,8.80
2019-03-18T12:30:16.072Z,8.90
2019-03-18T12:32:44.577Z,8.80
2019-03-18T12:35:13.177Z,8.50
2019-03-18T12:37:41.620Z,8.40
2019-03-18T12:40:15.166Z,8.50
2019-03-18T12:42:43.668Z,8.60
2019-03-18T12:45:17.432Z,8.40
2019-03-18T12:47:45.889Z,8.40
2019-03-18T12:50:18.359Z,8.50
2019-03-18T12:52:46.803Z,8.60
2019-03-18T12:55:15.356Z,8.80
2019-03-18T12:57:43.792Z,8.90
2019-03-18T13:00:32.207Z,8.80
2019-03-18T13:03:00.717Z,8.80
2019-03-18T13:05:29.229Z,9.10
2019-03-18T13:07:57.654Z,9.40
2019-03-18T13:10:26.164Z,10.10
2019-03-18T13:12:54.669Z,10.40
2019-03-18T13:15:23.172Z,10.40
2019-03-18T13:17:51.608Z,10.00
2019-03-18T13:20:21.172Z,9.90
2019-03-18T13:22:49.620Z,9.50
2019-03-18T13:25:18.070Z,9.30
2019-03-18T13:27:46.569Z,9.10
2019-03-18T13:30:19.021Z,8.90
2019-03-18T13:32:47.483Z,9.70
2019-03-18T13:35:15.973Z,10.70
2019-03-18T13:37:44.409Z,11.50
2019-03-18T13:40:14.272Z,10.70
2019-03-18T13:42:42.787Z,10.20
2019-03-18T13:45:16.858Z,9.50
2019-03-18T13:47:45.301Z,9.00
2019-03-18T13:50:19.119Z,8.90
2019-03-18T13:52:47.599Z,8.80
2019-03-18T13:55:16.164Z,8.60
2019-03-18T13:57:44.604Z,8.30
2019-03-18T14:00:17.868Z,7.20
2019-03-18T14:02:46.431Z,6.70
2019-03-18T14:05:14.985Z,6.40
2019-03-18T14:07:43.442Z,6.30
2019-03-18T14:10:16.976Z,6.40
2019-03-18T14:12:45.427Z,6.50
2019-03-18T14:15:18.495Z,6.60
2019-03-18T14:17:47.000Z,6.70
2019-03-18T14:20:17.926Z,7.00
2019-03-18T14:22:46.357Z,8.00
2019-03-18T14:25:14.846Z,9.20
2019-03-18T14:27:43.316Z,10.10
2019-03-18T14:30:16.133Z,10.80
2019-03-18T14:32:44.656Z,10.20
2019-03-18T14:35:13.520Z,10.20
2019-03-18T14:37:41.958Z,10.30
2019-03-18T14:40:18.537Z,10.00
2019-03-18T14:42:46.964Z,10.10
2019-03-18T14:45:19.983Z,10.20
2019-03-18T14:47:48.403Z,10.70
2019-03-18T14:50:18.096Z,10.80
2019-03-18T14:52:46.591Z,10.20
2019-03-18T14:55:15.960Z,9.60
2019-03-18T14:57:44.377Z,8.90
2019-03-18T15:00:15.640Z,8.70
2019-03-18T15:02:44.072Z,8.70
2019-03-18T15:05:14.245Z,8.70
2019-03-18T15:07:42.668Z,8.70
2019-03-18T15:10:13.742Z,8.80
2019-03-18T15:12:42.259Z,8.80
2019-03-18T15:15:13.584Z,8.90
2019-03-18T15:17:42.037Z,8.80
2019-03-18T15:20:12.451Z,8.90
2019-03-18T15:22:41.016Z,8.70
2019-03-18T15:25:15.256Z,8.60
2019-03-18T15:27:43.699Z,8.60
2019-03-18T15:30:15.237Z,8.60
2019-03-18T15:32:43.661Z,8.60
2019-03-18T15:35:12.768Z,8.50
2019-03-18T15:37:41.191Z,8.50
2019-03-18T15:40:18.781Z,8.40
2019-03-18T15:42:47.205Z,8.30
2019-03-18T15:45:17.184Z,8.30
2019-03-18T15:47:45.627Z,8.30
2019-03-18T15:50:21.975Z,8.40
2019-03-18T15:52:50.398Z,8.50
2019-03-18T15:55:18.846Z,8.60
2019-03-18T15:57:47.359Z,8.60
2019-03-18T16:00:20.238Z,8.70
2019-03-18T16:02:48.666Z,8.70
2019-03-18T16:05:17.093Z,8.70
2019-03-18T16:07:45.520Z,8.70
2019-03-18T16:10:17.443Z,8.60
2019-03-18T16:12:45.928Z,8.50
2019-03-18T16:15:17.833Z,8.40
2019-03-18T16:17:46.264Z,8.40
2019-03-18T16:20:25.553Z,8.20
2019-03-18T16:22:54.022Z,8.20
2019-03-18T16:25:22.515Z,8.00
2019-03-18T16:27:50.954Z,8.00
2019-03-18T16:30:20.508Z,8.00
2019-03-18T16:32:48.948Z,7.90
2019-03-18T16:35:17.637Z,7.90
2019-03-18T16:37:46.104Z,7.90
2019-03-18T16:40:18.529Z,7.80
2019-03-18T16:42:46.974Z,7.80
2019-03-18T16:45:17.382Z,7.70
2019-03-18T16:47:45.807Z,7.70
2019-03-18T16:50:22.458Z,7.60
2019-03-18T16:52:50.947Z,7.60
2019-03-18T16:55:19.380Z,7.60
2019-03-18T16:57:47.832Z,7.60
2019-03-18T17:00:24.513Z,7.50
2019-03-18T17:02:52.932Z,7.50
2019-03-18T17:05:21.368Z,7.50
2019-03-18T17:07:49.798Z,7.40
2019-03-18T17:10:18.293Z,7.40
2019-03-18T17:12:46.741Z,7.40
2019-03-18T17:15:19.830Z,7.40
2019-03-18T17:17:48.248Z,7.40
2019-03-18T17:20:17.151Z,7.40
2019-03-18T17:22:49.380Z,7.40
2019-03-18T17:25:27.468Z,7.30
2019-03-18T17:27:55.888Z,7.30
2019-03-18T17:30:26.689Z,7.20
2019-03-18T17:32:54.469Z,7.20
2019-03-18T17:35:22.897Z,7.10
2019-03-18T17:37:51.337Z,7.00
2019-03-18T17:40:20.717Z,6.90
2019-03-18T17:42:49.150Z,6.80
2019-03-18T17:45:19.189Z,6.80
2019-03-18T17:47:47.709Z,6.70
2019-03-18T17:50:27.566Z,6.60
2019-03-18T17:53:03.173Z,6.60
2019-03-18T17:55:26.142Z,6.50
2019-03-18T17:57:54.701Z,6.60
2019-03-18T18:00:27.520Z,6.80
2019-03-18T18:02:55.949Z,6.60
2019-03-18T18:05:24.376Z,6.50
2019-03-18T18:07:52.809Z,6.40
2019-03-18T18:10:21.224Z,6.30
2019-03-18T18:12:49.661Z,6.30
2019-03-18T18:15:18.107Z,6.30
2019-03-18T18:17:46.546Z,6.20
2019-03-18T18:20:17.741Z,6.20
2019-03-18T18:22:46.273Z,6.20
2019-03-18T18:25:15.680Z,6.10
2019-03-18T18:27:44.128Z,6.20
2019-03-18T18:30:18.918Z,6.20
2019-03-18T18:32:47.485Z,6.20
2019-03-18T18:35:15.905Z,6.10
2019-03-18T18:37:44.385Z,6.10
2019-03-18T18:40:17.885Z,6.20
2019-03-18T18:42:46.317Z,6.20
2019-03-18T18:45:14.763Z,6.20
2019-03-18T18:47:43.218Z,6.20
2019-03-18T18:50:12.387Z,6.20
2019-03-18T18:52:40.839Z,6.20
2019-03-18T18:55:10.572Z,6.40
2019-03-18T18:57:39.091Z,6.60
2019-03-18T19:00:18.329Z,6.40
2019-03-18T19:02:46.765Z,6.30
2019-03-18T19:05:18.723Z,6.20
2019-03-18T19:07:47.174Z,6.20
2019-03-18T19:10:20.128Z,6.10
2019-03-18T19:12:48.647Z,6.20
2019-03-18T19:15:22.069Z,6.20
2019-03-18T19:17:50.558Z,6.10
2019-03-18T19:20:18.985Z,6.10
2019-03-18T19:22:47.420Z,6.10
2019-03-18T19:25:16.586Z,6.10
2019-03-18T19:27:45.022Z,6.10
2019-03-18T19:30:23.109Z,6.10
2019-03-18T19:32:51.613Z,6.10
2019-03-18T19:35:20.101Z,6.20
2019-03-18T19:37:48.535Z,6.20
2019-03-18T19:40:20.776Z,6.20
2019-03-18T19:42:49.287Z,6.20
2019-03-18T19:45:17.712Z,6.20
2019-03-18T19:47:46.180Z,6.20
2019-03-18T19:50:23.399Z,6.30
2019-03-18T19:52:51.844Z,6.10
2019-03-18T19:55:20.285Z,6.10
2019-03-18T19:57:48.721Z,6.00
2019-03-18T20:00:24.256Z,6.00
2019-03-18T20:02:52.711Z,5.90
2019-03-18T20:05:21.206Z,6.00
2019-03-18T20:07:49.637Z,5.90
2019-03-18T20:10:19.005Z,5.80
2019-03-18T20:12:47.460Z,5.80
2019-03-18T20:15:16.939Z,5.70
2019-03-18T20:17:45.442Z,5.70
2019-03-18T20:20:19.028Z,5.70
2019-03-18T20:22:47.478Z,5.70
2019-03-18T20:25:15.940Z,5.60
2019-03-18T20:27:44.385Z,5.60
2019-03-18T20:30:27.821Z,5.60
2019-03-18T20:33:05.948Z,5.50
2019-03-18T20:35:34.636Z,5.50
2019-03-18T20:38:03.147Z,5.40
2019-03-18T20:40:31.593Z,5.40
2019-03-18T20:43:00.093Z,5.40
2019-03-18T20:45:28.536Z,5.40
2019-03-18T20:47:56.956Z,5.40
2019-03-18T20:50:25.610Z,5.30
2019-03-18T20:52:54.056Z,5.30
2019-03-18T20:55:22.557Z,5.30
2019-03-18T20:57:51.000Z,5.30
2019-03-18T21:00:24.158Z,5.20
2019-03-18T21:02:52.591Z,5.20
2019-03-18T21:05:21.035Z,5.20
2019-03-18T21:07:49.530Z,5.30
2019-03-18T21:10:18.903Z,5.20
2019-03-18T21:12:47.329Z,5.20
2019-03-18T21:15:16.599Z,5.10
2019-03-18T21:17:45.024Z,5.10
2019-03-18T21:20:29.177Z,5.10
2019-03-18T21:22:57.681Z,5.10
2019-03-18T21:25:26.132Z,5.10
2019-03-18T21:27:54.556Z,5.10
2019-03-18T21:30:23.545Z,5.00
2019-03-18T21:32:52.019Z,4.90
2019-03-18T21:35:20.518Z,4.90
2019-03-18T21:37:48.997Z,4.90
2019-03-18T21:40:18.507Z,4.90
2019-03-18T21:42:46.932Z,4.90
2019-03-18T21:45:23.882Z,4.90
2019-03-18T21:47:52.758Z,4.70
2019-03-18T21:50:21.270Z,4.80
2019-03-18T21:52:49.685Z,4.80
2019-03-18T21:55:18.212Z,4.70
2019-03-18T21:57:46.816Z,4.70
2019-03-18T22:00:20.429Z,4.70
2019-03-18T22:02:48.917Z,4.60
2019-03-18T22:05:17.349Z,4.60
2019-03-18T22:07:45.821Z,4.60
2019-03-18T22:10:16.453Z,4.50
2019-03-18T22:12:44.948Z,4.50
2019-03-18T22:15:14.332Z,4.50
2019-03-18T22:17:42.760Z,4.50
2019-03-18T22:20:13.436Z,4.40
2019-03-18T22:22:41.868Z,4.40
2019-03-18T22:25:11.933Z,4.40
2019-03-18T22:27:40.371Z,4.40
2019-03-18T22:30:14.654Z,4.30
2019-03-18T22:32:43.075Z,4.30
2019-03-18T22:35:11.928Z,4.20
2019-03-18T22:37:40.427Z,4.30
2019-03-18T22:40:11.301Z,4.30
2019-03-18T22:42:39.719Z,4.20
2019-03-18T22:45:10.589Z,4.20
2019-03-18T22:47:39.371Z,4.20
2019-03-18T22:50:09.544Z,4.20
2019-03-18T22:52:37.965Z,4.20
2019-03-18T22:55:11.044Z,4.20
2019-03-18T22:57:39.737Z,4.20
2019-03-18T23:00:20.580Z,4.20
2019-03-18T23:02:49.358Z,4.20
2019-03-18T23:05:17.932Z,4.20
2019-03-18T23:07:46.382Z,4.20
2019-03-18T23:10:14.889Z,4.20
2019-03-18T23:12:43.348Z,4.20
2019-03-18T23:15:11.822Z,4.30
2019-03-18T23:17:40.277Z,4.30
2019-03-18T23:20:09.143Z,4.20
2019-03-18T23:22:37.576Z,4.20
2019-03-18T23:25:08.201Z,4.30
2019-03-18T23:27:36.946Z,4.30
2019-03-18T23:30:09.400Z,4.20
2019-03-18T23:32:37.851Z,4.20
2019-03-18T23:35:06.894Z,4.20
2019-03-18T23:37:35.324Z,4.20
2019-03-18T23:40:06.032Z,4.20
2019-03-18T23:42:34.488Z,4.20
2019-03-18T23:45:02.910Z,4.30
2019-03-18T23:47:31.373Z,4.30
2019-03-18T23:49:59.832Z,4.20
2019-03-18T23:52:28.327Z,4.20
2019-03-18T23:54:56.774Z,4.30
2019-03-18T23:57:25.214Z,4.20
2019-03-18T23:59:53.647Z,4.20
